Weather at Detroit Metropolitan Wayne County Airport

Public forecast

Using degrees Fahrenheit for public forecast. Weather courtesy of forecast.io.

Current aviation weather report (METAR) for Detroit Metropolitan Wayne County Airport

Report is more than 6 hours old.

Retrieved 2022/09/17 18:53 UTC (18 days ago):

KDTW 171853Z 23007KT 190V280 10SM SCT050 BKN250 28/15 A3008 RMK AO2 SLP182 T02780150

Aviation forecast (TAF) for Detroit Metropolitan Wayne County Airport

Forecast is more than 12 hours old.

Retrieved 2022/09/17 18:22 UTC (18 days ago):

TAF KDTW 171720Z 1718/1824 22010KT P6SM SCT060 BKN250 TEMPO 1720/1722 BKN060 BKN250 FM180500 20007KT P6SM OVC100 FM181400 24010KT P6SM BKN150